Nearby METAR Reports

 

KPMP - Pompano Beach, Florida, USA
Distance from station: NNW 3mi, 5km
Updated: 07/22/2019 1:53am
Clear
Clear
 Wind from NW
Wind: NW 5 mph , 7 km/h
Temperature: 79°F , 26°C
Dew Point: 72°F , 22°C
Humidity: 79%
Barometer: 30.02 inHg , 1016.6 hPa
Clouds: Clear
Visibility: 10 miles , 16 km
2019/07/22 05:53 KPMP 220553Z AUTO 32004KT 10SM CLR 26/22 A3002 RMK AO2 SLP167 T02560222 10294 20256 56015
KFXE - Ft Lauderd/Exec, Florida, USA
Distance from station: W 6mi, 9km
Updated: 07/22/2019 1:53am
Clear
Clear
 Wind from calm
Wind: Calm
Temperature: 79°F , 26°C
Dew Point: 72°F , 22°C
Humidity: 79%
Barometer: 30.02 inHg , 1016.6 hPa
Clouds: Clear
Visibility: 10 miles , 16 km
2019/07/22 05:53 KFXE 220553Z 00000KT 10SM CLR 26/22 A3002 RMK AO2 SLP169 T02560222 10278 20250 56015
 
KFLL - Ft Lauderd/Holly, Florida, USA
Distance from station: SSW 11mi, 17km
Updated: 07/22/2019 1:53am
Clear
Clear
 Wind from NW
Wind: NW 3 mph , 6 km/h
Temperature: 79°F , 26°C
Dew Point: 72°F , 22°C
Humidity: 79%
Barometer: 30.02 inHg , 1016.6 hPa
Clouds: Clear
Visibility: 10 miles , 16 km
2019/07/22 05:53 KFLL 220553Z 32003KT 10SM CLR 26/22 A3002 RMK AO2 SLP165 T02560217 10289 20256 57014
KBCT - Boca Raton, Florida, USA
Distance from station: N 12mi, 19km
Updated: 07/21/2019 10:47pm
NOT Current
Partly cloudy
Partly cloudy
 Wind from NNW
Wind: NNW 6 mph , 9 km/h
Temperature: 79°F , 26°C
Dew Point: 72°F , 22°C
Humidity: 79%
Barometer: 30.07 inHg , 1018.3 hPa
Clouds: Partly cloudy
Visibility: 10 miles , 16 km
Cloud details: Partly cloudy 3200 ft
2019/07/22 02:47 KBCT 220247Z 34005KT 10SM SCT032 26/22 A3007
 
KHWO - Hollywood, Florida, USA
Distance from station: SSW 17mi, 27km
Updated: 07/22/2019 1:53am
Clear
Clear
 Wind from N
Wind: N 5 mph , 7 km/h
Temperature: 79°F , 26°C
Dew Point: 72°F , 22°C
Humidity: 79%
Barometer: 30.03 inHg , 1016.9 hPa
Clouds: Clear
Visibility: 10 miles , 16 km
2019/07/22 05:53 KHWO 220553Z AUTO 36004KT 10SM CLR 26/22 A3003 RMK AO2 SLP170 T02610217 10283 20261 58015
KOPF - Miami/Opa Locka, Florida, USA
Distance from station: SSW 24mi, 38km
Updated: 07/22/2019 1:53am
Clear
Clear
 Wind from calm
Wind: Calm
Temperature: 79°F , 26°C
Dew Point: 72°F , 22°C
Humidity: 79%
Barometer: 30.02 inHg , 1016.6 hPa
Clouds: Clear
Visibility: 10 miles , 16 km
2019/07/22 05:53 KOPF 220553Z AUTO 00000KT 10SM CLR 26/22 A3002 RMK AO2 SLP168 T02610217 10272 20239 58014
 
KMIA - Miami, Florida, USA
Distance from station: SSW 31mi, 50km
Updated: 07/22/2019 1:53am
Few Clouds
Few Clouds
 Wind from calm
Wind: Calm
Temperature: 81°F , 27°C
Heat Index: 85°F , 29°C
Dew Point: 72°F , 22°C
Humidity: 74%
Barometer: 30.02 inHg , 1016.6 hPa
Clouds: Few Clouds
Visibility: 10 miles , 16 km
Cloud details: Few Clouds 2700 ft
Few Clouds 25000 ft
2019/07/22 05:53 KMIA 220553Z 00000KT 10SM FEW027 FEW250 27/22 A3002 RMK AO2 SLP165 T02670217 10278 20267 58013
KPBI - West Palm Beach, Florida, USA
Distance from station: N 33mi, 52km
Updated: 07/22/2019 1:53am
Few Clouds
Few Clouds
 Wind from NNW
Wind: NNW 3 mph , 6 km/h
Temperature: 79°F , 26°C
Dew Point: 73°F , 23°C
Humidity: 84%
Barometer: 30.03 inHg , 1016.9 hPa
Clouds: Few Clouds
Visibility: 10 miles , 16 km
Cloud details: Few Clouds 25000 ft
2019/07/22 05:53 KPBI 220553Z 33003KT 10SM FEW250 26/23 A3003 RMK AO2 SLP169 T02560228 10294 20256 58013 $
 
KTMB - Miami/Tamiami, Florida, USA
Distance from station: SSW 44mi, 71km
Updated: 07/22/2019 1:53am
Clear
Clear
 Wind from calm
Wind: Calm
Temperature: 75°F , 24°C
Dew Point: 72°F , 22°C
Humidity: 89%
Barometer: 30.02 inHg , 1016.6 hPa
Clouds: Clear
Visibility: 10 miles , 16 km
2019/07/22 05:53 KTMB 220553Z AUTO 00000KT 10SM CLR 24/22 A3002 RMK AO2 SLP164 T02390222 10267 20239 58014 $